createdAt,value
2023-05-02T00:01:09.763Z,9.20
2023-05-02T00:03:45.260Z,8.90
2023-05-02T00:06:13.950Z,8.20
2023-05-02T00:08:42.473Z,8.50
2023-05-02T00:11:11.122Z,9.40
2023-05-02T00:13:39.691Z,8.30
2023-05-02T00:16:08.278Z,7.10
2023-05-02T00:18:36.982Z,7.60
2023-05-02T00:21:06.533Z,7.00
2023-05-02T00:23:35.095Z,8.00
2023-05-02T00:26:03.564Z,8.90
2023-05-02T00:28:32.148Z,7.40
2023-05-02T00:31:00.575Z,7.60
2023-05-02T00:33:29.182Z,7.60
2023-05-02T00:35:57.719Z,7.30
2023-05-02T00:38:26.257Z,8.20
2023-05-02T00:40:54.926Z,8.20
2023-05-02T00:43:23.382Z,7.40
2023-05-02T00:45:52.722Z,7.60
2023-05-02T00:48:22.069Z,8.60
2023-05-02T00:50:50.525Z,8.20
2023-05-02T00:53:18.958Z,8.00
2023-05-02T00:55:49.676Z,8.40
2023-05-02T00:58:19.425Z,8.30
2023-05-02T01:01:12.997Z,8.30
2023-05-02T01:04:00.468Z,7.90
2023-05-02T01:06:49.361Z,9.70
2023-05-02T01:09:30.801Z,8.80
2023-05-02T01:12:04.138Z,10.60
2023-05-02T01:14:37.025Z,8.60
2023-05-02T01:17:08.420Z,10.20
2023-05-02T01:19:38.611Z,9.70
2023-05-02T01:22:09.879Z,9.70
2023-05-02T01:24:43.376Z,8.90
2023-05-02T01:27:33.310Z,8.90
2023-05-02T01:30:01.998Z,10.30
2023-05-02T01:32:33.771Z,9.70
2023-05-02T01:35:02.211Z,9.40
2023-05-02T01:37:30.646Z,9.40
2023-05-02T01:39:59.608Z,9.00
2023-05-02T01:42:28.434Z,10.70
2023-05-02T01:44:56.968Z,8.30
2023-05-02T01:47:25.670Z,9.20
2023-05-02T01:49:54.897Z,7.80
2023-05-02T01:52:23.472Z,9.40
2023-05-02T01:54:52.858Z,9.90
2023-05-02T01:57:21.446Z,9.40
2023-05-02T01:59:50.024Z,8.40
2023-05-02T02:02:19.443Z,7.90
2023-05-02T02:05:00.215Z,7.90
2023-05-02T02:07:28.992Z,8.70
2023-05-02T02:09:57.762Z,9.40
2023-05-02T02:12:32.529Z,9.10
2023-05-02T02:15:21.505Z,8.80
2023-05-02T02:17:56.951Z,8.40
2023-05-02T02:20:25.692Z,8.90
2023-05-02T02:22:54.298Z,8.60
2023-05-02T02:25:23.194Z,8.80
2023-05-02T02:27:51.797Z,8.30
2023-05-02T02:30:20.316Z,8.70
2023-05-02T02:32:48.974Z,8.70
2023-05-02T02:35:17.595Z,7.70
2023-05-02T02:37:55.294Z,8.50
2023-05-02T02:40:38.461Z,11.80
2023-05-02T02:43:09.006Z,8.40
2023-05-02T02:46:12.887Z,7.60
2023-05-02T02:48:59.311Z,8.70
2023-05-02T02:54:27.170Z,8.00
2023-05-02T02:57:25.572Z,8.50
2023-05-02T03:00:06.260Z,8.00
2023-05-02T03:02:34.963Z,7.70
2023-05-02T03:05:04.251Z,8.20
2023-05-02T03:07:32.723Z,7.90
2023-05-02T03:10:04.060Z,7.80
2023-05-02T03:12:32.855Z,8.20
2023-05-02T03:15:36.713Z,7.60
2023-05-02T03:18:05.319Z,7.70
2023-05-02T03:20:34.150Z,7.70
2023-05-02T03:23:02.988Z,7.40
2023-05-02T03:25:31.652Z,8.80
2023-05-02T03:28:00.352Z,8.40
2023-05-02T03:30:28.943Z,7.50
2023-05-02T03:32:57.532Z,7.80
2023-05-02T03:35:26.288Z,9.20
2023-05-02T03:37:55.432Z,8.50
2023-05-02T03:40:24.593Z,9.50
2023-05-02T03:42:53.140Z,8.90
2023-05-02T03:45:25.575Z,8.20
2023-05-02T03:47:54.154Z,7.30
2023-05-02T03:50:23.470Z,10.10
2023-05-02T03:52:52.294Z,8.30
2023-05-02T03:55:23.245Z,8.40
2023-05-02T03:57:52.509Z,9.30
2023-05-02T04:00:21.306Z,8.70
2023-05-02T04:02:53.405Z,9.10
2023-05-02T04:05:34.494Z,7.40
2023-05-02T04:08:03.637Z,7.90
2023-05-02T04:10:32.492Z,7.70
2023-05-02T04:13:04.193Z,8.60
2023-05-02T04:15:34.409Z,6.90
2023-05-02T04:18:03.240Z,6.90
2023-05-02T04:20:33.460Z,8.00
2023-05-02T04:23:02.056Z,8.40
2023-05-02T04:25:31.157Z,7.40
2023-05-02T04:28:03.629Z,7.70
2023-05-02T04:30:32.082Z,8.60
2023-05-02T04:33:07.864Z,6.60
2023-05-02T04:35:41.886Z,8.00
2023-05-02T04:38:12.941Z,8.10
2023-05-02T04:40:41.496Z,7.80
2023-05-02T04:43:10.766Z,9.40
2023-05-02T04:45:52.716Z,7.30
2023-05-02T04:48:28.159Z,8.40
2023-05-02T04:50:56.823Z,8.00
2023-05-02T04:53:25.696Z,7.90
2023-05-02T04:55:54.849Z,7.90
2023-05-02T04:58:23.486Z,7.50
2023-05-02T05:00:59.642Z,7.40
2023-05-02T05:03:33.492Z,7.50
2023-05-02T05:06:02.778Z,8.20
2023-05-02T05:08:31.728Z,7.90
2023-05-02T05:11:01.129Z,7.90
2023-05-02T05:13:29.665Z,8.60
2023-05-02T05:15:59.394Z,8.20
2023-05-02T05:18:32.194Z,8.50
2023-05-02T05:21:00.849Z,8.90
2023-05-02T05:23:30.213Z,8.00
2023-05-02T05:25:59.692Z,7.90
2023-05-02T05:28:28.376Z,8.90
2023-05-02T05:30:57.759Z,8.00
2023-05-02T05:33:26.556Z,8.40
2023-05-02T05:35:55.295Z,7.40
2023-05-02T05:38:23.999Z,8.50
2023-05-02T05:40:52.694Z,8.80
2023-05-02T05:43:21.394Z,8.90
2023-05-02T05:45:52.686Z,9.30
2023-05-02T05:48:21.591Z,9.80
2023-05-02T05:50:50.576Z,8.20
2023-05-02T05:53:19.641Z,8.00
2023-05-02T05:55:50.464Z,11.10
2023-05-02T05:58:20.356Z,12.40
2023-05-02T06:00:51.052Z,11.20
2023-05-02T06:03:19.706Z,9.00
2023-05-02T06:05:57.676Z,8.50
2023-05-02T06:08:27.779Z,9.90
2023-05-02T06:10:56.401Z,9.90
2023-05-02T06:13:26.121Z,8.70
2023-05-02T06:15:54.747Z,6.80
2023-05-02T06:18:23.398Z,7.20
2023-05-02T06:20:51.884Z,7.10
2023-05-02T06:23:20.433Z,7.00
2023-05-02T06:25:48.896Z,7.50
2023-05-02T06:28:17.513Z,6.90
2023-05-02T06:30:46.001Z,7.50
2023-05-02T06:33:14.627Z,6.60
2023-05-02T06:35:43.394Z,5.60
2023-05-02T06:38:11.984Z,5.40
2023-05-02T06:40:46.245Z,6.10
2023-05-02T06:43:14.833Z,5.80
2023-05-02T06:45:43.550Z,5.90
2023-05-02T06:48:12.380Z,6.80
2023-05-02T06:50:41.320Z,5.90
2023-05-02T06:53:09.745Z,6.30
2023-05-02T06:55:38.341Z,5.20
2023-05-02T06:58:06.973Z,5.10
2023-05-02T07:00:35.519Z,5.00
2023-05-02T07:03:04.367Z,5.50
2023-05-02T07:05:33.110Z,4.30
2023-05-02T07:08:01.859Z,5.00
2023-05-02T07:10:30.676Z,4.70
2023-05-02T07:12:59.382Z,4.20
2023-05-02T07:15:28.030Z,5.30
2023-05-02T07:17:56.833Z,5.70
2023-05-02T07:20:25.855Z,5.50
2023-05-02T07:22:54.473Z,5.10
2023-05-02T07:25:23.136Z,4.80
2023-05-02T07:27:51.877Z,3.90
2023-05-02T07:30:20.683Z,4.60
2023-05-02T07:32:49.164Z,3.80
2023-05-02T07:35:17.810Z,3.80
2023-05-02T07:37:46.582Z,4.00
2023-05-02T07:40:15.257Z,4.50
2023-05-02T07:42:44.631Z,4.10
2023-05-02T07:45:13.285Z,3.00
2023-05-02T07:47:42.334Z,2.40
2023-05-02T07:50:11.307Z,2.50
2023-05-02T07:52:40.059Z,3.00
2023-05-02T07:55:09.183Z,3.20
2023-05-02T07:57:37.674Z,3.00
2023-05-02T08:00:10.575Z,2.80
2023-05-02T08:02:43.008Z,2.90
2023-05-02T08:05:12.068Z,3.40
2023-05-02T08:07:52.971Z,2.80
2023-05-02T08:10:21.749Z,2.90
2023-05-02T08:12:51.539Z,5.50
2023-05-02T08:15:20.157Z,3.40
2023-05-02T08:17:48.655Z,4.10
2023-05-02T08:20:17.263Z,3.90
2023-05-02T08:22:45.903Z,4.60
2023-05-02T08:25:14.819Z,3.40
2023-05-02T08:27:43.426Z,3.50
2023-05-02T08:30:12.947Z,3.10
2023-05-02T08:32:41.654Z,3.40
2023-05-02T08:35:10.541Z,3.50
2023-05-02T08:37:39.950Z,3.80
2023-05-02T08:40:12.656Z,3.90
2023-05-02T08:42:45.238Z,4.10
2023-05-02T08:45:16.493Z,3.60
2023-05-02T08:47:45.775Z,3.70
2023-05-02T08:50:14.488Z,3.70
2023-05-02T08:52:44.666Z,4.10
2023-05-02T08:55:13.201Z,3.60
2023-05-02T08:57:41.886Z,3.60
2023-05-02T09:00:12.058Z,3.20
2023-05-02T09:02:53.251Z,3.90
2023-05-02T09:05:21.703Z,4.00
2023-05-02T09:07:51.818Z,3.70
2023-05-02T09:10:20.364Z,4.10
2023-05-02T09:12:49.017Z,3.30
2023-05-02T09:15:19.192Z,3.30
2023-05-02T09:17:49.746Z,4.20
2023-05-02T09:20:18.427Z,3.50
2023-05-02T09:22:53.454Z,4.10
2023-05-02T09:25:22.039Z,3.80
2023-05-02T09:27:54.819Z,3.20
2023-05-02T09:30:25.107Z,3.50
2023-05-02T09:32:57.025Z,3.30
2023-05-02T09:35:26.512Z,3.30
2023-05-02T09:37:58.381Z,2.90
2023-05-02T09:40:28.282Z,3.20
2023-05-02T09:42:57.173Z,3.90
2023-05-02T09:45:26.360Z,3.20
2023-05-02T09:47:55.335Z,3.40
2023-05-02T09:50:35.008Z,3.50
2023-05-02T09:53:08.876Z,3.20
2023-05-02T09:55:37.481Z,3.10
2023-05-02T09:58:06.910Z,4.00
2023-05-02T10:00:40.592Z,3.40
2023-05-02T10:03:09.447Z,3.30
2023-05-02T10:05:39.231Z,3.40
2023-05-02T10:08:17.032Z,4.00
2023-05-02T10:10:59.100Z,3.10
2023-05-02T10:13:33.289Z,3.30
2023-05-02T10:16:03.425Z,3.50
2023-05-02T10:18:47.532Z,3.20
2023-05-02T10:21:29.516Z,2.90
2023-05-02T10:23:58.157Z,3.50
2023-05-02T10:26:28.317Z,2.90
2023-05-02T10:28:56.967Z,3.20
2023-05-02T10:31:25.691Z,3.10
2023-05-02T10:33:54.205Z,2.50
2023-05-02T10:36:23.088Z,2.60
2023-05-02T10:38:51.775Z,2.60
2023-05-02T10:41:23.392Z,2.50
2023-05-02T10:43:52.554Z,2.70
2023-05-02T10:46:32.237Z,2.30
2023-05-02T10:49:13.703Z,2.70
2023-05-02T10:51:43.100Z,2.70
2023-05-02T10:54:20.443Z,3.10
2023-05-02T10:57:04.498Z,2.10
2023-05-02T10:59:42.807Z,2.00
2023-05-02T11:02:28.642Z,2.50
2023-05-02T11:05:04.448Z,2.70
2023-05-02T11:07:34.991Z,2.50
2023-05-02T11:10:16.549Z,2.40
2023-05-02T11:12:49.413Z,2.30
2023-05-02T11:15:29.922Z,9.40
2023-05-02T11:18:13.775Z,2.50
2023-05-02T11:20:43.757Z,2.70
2023-05-02T11:23:27.137Z,2.80
2023-05-02T11:25:57.163Z,3.20
2023-05-02T11:28:34.820Z,2.40
2023-05-02T11:31:07.329Z,2.70
2023-05-02T11:33:36.182Z,2.70
2023-05-02T11:36:04.829Z,2.40
2023-05-02T11:38:37.798Z,2.20
2023-05-02T11:41:06.427Z,5.60
2023-05-02T11:43:35.158Z,3.50
2023-05-02T11:46:05.822Z,2.90
2023-05-02T11:48:34.380Z,2.60
2023-05-02T11:51:05.553Z,2.70
2023-05-02T11:53:35.007Z,2.30
2023-05-02T11:56:04.858Z,2.40
2023-05-02T11:58:34.374Z,2.50
2023-05-02T12:01:16.111Z,3.70
2023-05-02T12:03:45.988Z,2.50
2023-05-02T12:06:16.700Z,2.60
2023-05-02T12:08:49.710Z,2.40
2023-05-02T12:11:18.435Z,3.70
2023-05-02T12:13:48.237Z,1.90
2023-05-02T12:16:18.093Z,2.50
2023-05-02T12:18:47.721Z,3.20
2023-05-02T12:21:16.266Z,3.00
2023-05-02T12:23:44.956Z,3.40
2023-05-02T12:26:32.377Z,2.80
2023-05-02T12:29:03.103Z,2.60
2023-05-02T12:31:32.701Z,2.90
2023-05-02T12:34:01.802Z,3.80
2023-05-02T12:36:30.439Z,3.00
2023-05-02T12:39:00.347Z,2.20
2023-05-02T12:41:32.280Z,2.30
2023-05-02T12:44:01.181Z,3.20
2023-05-02T12:46:30.191Z,2.60
2023-05-02T12:49:12.584Z,2.30
2023-05-02T12:51:41.549Z,2.40
2023-05-02T12:54:21.180Z,3.00
2023-05-02T12:56:52.186Z,2.60
2023-05-02T12:59:30.723Z,2.80
2023-05-02T13:02:00.194Z,3.20
2023-05-02T13:04:39.661Z,2.90
2023-05-02T13:07:08.298Z,3.40
2023-05-02T13:09:37.457Z,2.80
2023-05-02T13:12:06.321Z,2.70
2023-05-02T13:14:35.045Z,2.70
2023-05-02T13:17:04.618Z,2.60
2023-05-02T13:19:33.471Z,2.90
2023-05-02T13:22:02.082Z,2.70
2023-05-02T13:24:30.539Z,2.60
2023-05-02T13:26:59.038Z,3.10
2023-05-02T13:29:27.668Z,2.90
2023-05-02T13:31:56.299Z,3.00
2023-05-02T13:34:24.827Z,2.50
2023-05-02T13:36:53.443Z,2.60
2023-05-02T13:39:21.947Z,3.10
2023-05-02T13:41:50.510Z,2.60
2023-05-02T13:44:19.122Z,2.60
2023-05-02T13:46:47.984Z,2.90
2023-05-02T13:49:16.713Z,2.80
2023-05-02T13:51:45.136Z,2.30
2023-05-02T13:54:13.762Z,2.70
2023-05-02T13:56:42.579Z,2.70
2023-05-02T13:59:11.408Z,3.10
2023-05-02T14:01:40.897Z,3.40
2023-05-02T14:04:09.768Z,2.80
2023-05-02T14:06:39.672Z,2.80
2023-05-02T14:09:15.957Z,3.30
2023-05-02T14:11:47.658Z,3.00
2023-05-02T14:14:16.398Z,2.30
2023-05-02T14:16:44.890Z,2.70
2023-05-02T14:19:13.496Z,2.50
2023-05-02T14:21:42.190Z,3.20
2023-05-02T14:24:13.079Z,2.80
2023-05-02T14:26:41.700Z,2.80
2023-05-02T14:29:10.230Z,2.80
2023-05-02T14:31:38.823Z,2.40
2023-05-02T14:34:08.966Z,2.20
2023-05-02T14:36:38.220Z,2.30
2023-05-02T14:39:06.874Z,2.10
2023-05-02T14:41:35.352Z,2.40
2023-05-02T14:44:04.062Z,2.50
2023-05-02T14:46:32.738Z,2.50
2023-05-02T14:49:01.582Z,2.40
2023-05-02T14:51:30.048Z,2.30
2023-05-02T14:53:58.845Z,2.50
2023-05-02T14:56:27.701Z,3.00
2023-05-02T14:58:56.164Z,2.90
2023-05-02T15:01:24.954Z,3.40
2023-05-02T15:04:05.780Z,2.20
2023-05-02T15:06:37.196Z,1.90
2023-05-02T15:09:06.248Z,2.50
2023-05-02T15:11:34.934Z,2.60
2023-05-02T15:14:03.600Z,2.70
2023-05-02T15:16:32.405Z,2.00
2023-05-02T15:19:00.937Z,2.20
2023-05-02T15:21:29.704Z,2.30
2023-05-02T15:23:58.360Z,2.20
2023-05-02T15:26:27.392Z,1.80
2023-05-02T15:28:56.186Z,2.20
2023-05-02T15:31:24.859Z,2.20
2023-05-02T15:33:53.467Z,2.70
2023-05-02T15:36:22.672Z,2.60
2023-05-02T15:38:51.250Z,2.50
2023-05-02T15:41:19.786Z,2.10
2023-05-02T15:43:48.395Z,2.20
2023-05-02T15:46:17.032Z,2.20
2023-05-02T15:48:45.513Z,2.30
2023-05-02T15:51:14.009Z,2.00
2023-05-02T15:53:44.645Z,2.90
2023-05-02T15:56:13.257Z,2.50
2023-05-02T15:58:41.679Z,2.00
2023-05-02T16:01:10.256Z,1.90
2023-05-02T16:03:38.916Z,1.90
2023-05-02T16:06:07.977Z,1.80
2023-05-02T16:08:36.673Z,2.30
2023-05-02T16:11:08.241Z,1.80
2023-05-02T16:13:37.111Z,1.90
2023-05-02T16:16:08.093Z,2.10
2023-05-02T16:18:36.667Z,2.30
2023-05-02T16:21:05.922Z,1.90
2023-05-02T16:23:34.409Z,2.00
2023-05-02T16:26:03.129Z,2.10
2023-05-02T16:28:31.604Z,2.00
2023-05-02T16:31:07.114Z,2.10
2023-05-02T16:33:35.962Z,2.30
2023-05-02T16:36:04.712Z,2.60
2023-05-02T16:38:33.404Z,2.50
2023-05-02T16:41:08.371Z,2.40
2023-05-02T16:43:38.133Z,2.30
2023-05-02T16:46:07.051Z,2.30
2023-05-02T16:48:36.000Z,2.00
2023-05-02T16:51:04.898Z,2.30
2023-05-02T16:53:33.686Z,3.20
2023-05-02T16:56:02.333Z,2.50
2023-05-02T16:58:31.013Z,2.40
2023-05-02T17:01:00.639Z,2.50
2023-05-02T17:03:29.832Z,2.70
2023-05-02T17:06:01.419Z,2.40
2023-05-02T17:08:30.712Z,2.40
2023-05-02T17:10:59.262Z,2.70
2023-05-02T17:13:27.906Z,1.80
2023-05-02T17:15:56.527Z,2.10
2023-05-02T17:18:26.913Z,2.90
2023-05-02T17:20:55.966Z,2.10
2023-05-02T17:23:24.969Z,2.40
2023-05-02T17:25:53.593Z,2.60
2023-05-02T17:28:22.330Z,2.30
2023-05-02T17:30:54.740Z,2.30
2023-05-02T17:33:23.591Z,2.70
2023-05-02T17:35:52.461Z,2.50
2023-05-02T17:38:21.135Z,3.30
2023-05-02T17:40:49.751Z,2.00
2023-05-02T17:43:18.458Z,2.90
2023-05-02T17:45:47.022Z,3.90
2023-05-02T17:48:15.882Z,2.90
2023-05-02T17:50:44.703Z,5.40
2023-05-02T17:53:15.167Z,10.40
2023-05-02T17:55:43.796Z,3.90
2023-05-02T17:58:12.267Z,2.60
2023-05-02T18:00:40.749Z,3.00
2023-05-02T18:03:09.246Z,3.00
2023-05-02T18:05:39.977Z,2.80
2023-05-02T18:08:08.487Z,3.00
2023-05-02T18:10:41.321Z,3.20
2023-05-02T18:13:22.946Z,3.00
2023-05-02T18:16:01.851Z,2.50
2023-05-02T18:18:30.684Z,3.40
2023-05-02T18:21:01.331Z,3.00
2023-05-02T18:23:29.948Z,4.20
2023-05-02T18:25:58.636Z,2.60
2023-05-02T18:28:28.275Z,3.30
2023-05-02T18:30:59.756Z,3.60
2023-05-02T18:33:28.243Z,3.00
2023-05-02T18:35:56.883Z,3.50
2023-05-02T18:38:25.608Z,3.70
2023-05-02T18:40:54.173Z,4.20
2023-05-02T18:43:25.087Z,3.60
2023-05-02T18:45:53.738Z,3.40
2023-05-02T18:48:23.168Z,3.90
2023-05-02T18:50:57.062Z,4.10
2023-05-02T18:53:26.704Z,3.60
2023-05-02T18:55:58.034Z,3.20
2023-05-02T18:58:27.044Z,4.10
2023-05-02T19:00:55.645Z,4.20
2023-05-02T19:03:24.383Z,2.90
2023-05-02T19:05:54.040Z,3.10
2023-05-02T19:08:23.172Z,3.30
2023-05-02T19:10:53.513Z,2.80
2023-05-02T19:13:27.384Z,5.30
2023-05-02T19:15:55.930Z,4.40
2023-05-02T19:18:30.039Z,4.30
2023-05-02T19:20:58.861Z,5.30
2023-05-02T19:23:27.654Z,4.70
2023-05-02T19:25:56.135Z,5.30
2023-05-02T19:28:24.686Z,4.70
2023-05-02T19:30:55.286Z,5.40
2023-05-02T19:33:23.836Z,4.50
2023-05-02T19:35:54.506Z,5.60
2023-05-02T19:38:25.898Z,4.70
2023-05-02T19:40:54.515Z,4.50
2023-05-02T19:43:23.155Z,4.10
2023-05-02T19:45:51.673Z,4.20
2023-05-02T19:48:23.123Z,4.70
2023-05-02T19:50:51.666Z,4.70
2023-05-02T19:53:21.004Z,4.60
2023-05-02T19:55:49.601Z,3.90
2023-05-02T19:58:18.577Z,4.40
2023-05-02T20:00:49.461Z,3.70
2023-05-02T20:03:18.600Z,5.00
2023-05-02T20:05:47.758Z,3.60
2023-05-02T20:08:16.914Z,3.80
2023-05-02T20:10:45.836Z,3.40
2023-05-02T20:13:14.405Z,4.10
2023-05-02T20:15:46.025Z,3.50
2023-05-02T20:18:14.916Z,3.40
2023-05-02T20:20:45.078Z,4.10
2023-05-02T20:23:13.852Z,3.70
2023-05-02T20:25:42.984Z,3.60
2023-05-02T20:28:11.775Z,3.90
2023-05-02T20:30:40.662Z,3.10
2023-05-02T20:33:15.673Z,3.60
2023-05-02T20:35:45.723Z,3.20
2023-05-02T20:38:15.059Z,3.60
2023-05-02T20:40:43.614Z,3.50
2023-05-02T20:43:13.068Z,3.60
2023-05-02T20:45:41.707Z,3.90
2023-05-02T20:48:12.707Z,4.70
2023-05-02T20:50:41.550Z,3.50
2023-05-02T20:53:10.060Z,3.60
2023-05-02T20:55:38.626Z,4.80
2023-05-02T20:58:07.209Z,3.80
2023-05-02T21:00:35.809Z,3.60
2023-05-02T21:03:04.547Z,3.60
2023-05-02T21:05:33.240Z,3.30
2023-05-02T21:08:01.796Z,3.70
2023-05-02T21:10:30.927Z,3.70
2023-05-02T21:12:59.478Z,3.70
2023-05-02T21:15:27.978Z,3.70
2023-05-02T21:18:03.093Z,4.00
2023-05-02T21:20:31.805Z,3.80
2023-05-02T21:23:00.664Z,3.20
2023-05-02T21:25:29.398Z,3.90
2023-05-02T21:27:57.783Z,3.80
2023-05-02T21:30:26.610Z,3.90
2023-05-02T21:32:55.156Z,4.30
2023-05-02T21:35:23.667Z,4.30
2023-05-02T21:37:52.384Z,4.50
2023-05-02T21:40:20.960Z,3.80
2023-05-02T21:42:49.431Z,4.00
2023-05-02T21:45:17.955Z,4.40
2023-05-02T21:47:46.380Z,4.10
2023-05-02T21:50:15.004Z,4.20
2023-05-02T21:52:46.766Z,4.00
2023-05-02T21:55:15.439Z,4.50
2023-05-02T21:57:44.076Z,3.40
2023-05-02T22:00:13.350Z,4.00
2023-05-02T22:02:42.575Z,4.30
2023-05-02T22:05:11.786Z,4.30
2023-05-02T22:07:40.371Z,3.70
2023-05-02T22:10:10.159Z,3.70
2023-05-02T22:12:38.783Z,3.70
2023-05-02T22:15:08.613Z,3.70
2023-05-02T22:17:55.164Z,3.80
2023-05-02T22:20:26.070Z,4.20
2023-05-02T22:22:54.829Z,2.90
2023-05-02T22:25:23.390Z,3.60
2023-05-02T22:27:52.424Z,3.60
2023-05-02T22:30:20.935Z,3.70
2023-05-02T22:32:49.537Z,3.60
2023-05-02T22:35:18.222Z,3.00
2023-05-02T22:37:46.813Z,3.60
2023-05-02T22:40:15.278Z,3.90
2023-05-02T22:42:44.090Z,4.50
2023-05-02T22:45:14.024Z,4.80
2023-05-02T22:47:43.159Z,4.20
2023-05-02T22:50:11.765Z,4.20
2023-05-02T22:52:40.342Z,4.00
2023-05-02T22:55:09.599Z,3.90
2023-05-02T22:57:38.813Z,3.40
2023-05-02T23:00:09.572Z,3.50
2023-05-02T23:02:38.466Z,3.60
2023-05-02T23:05:07.451Z,4.10
2023-05-02T23:07:36.052Z,3.80
2023-05-02T23:10:04.980Z,3.80
2023-05-02T23:12:33.733Z,4.30
2023-05-02T23:15:02.571Z,4.20
2023-05-02T23:17:31.077Z,4.30
2023-05-02T23:19:59.775Z,3.20
2023-05-02T23:22:28.453Z,4.00
2023-05-02T23:24:56.978Z,3.80
2023-05-02T23:27:25.499Z,3.50
2023-05-02T23:29:54.059Z,4.80
2023-05-02T23:32:23.782Z,4.20
2023-05-02T23:34:52.696Z,3.80
2023-05-02T23:37:21.805Z,3.90
2023-05-02T23:39:51.176Z,3.80
2023-05-02T23:42:19.740Z,4.10
2023-05-02T23:44:48.951Z,3.10
2023-05-02T23:47:17.441Z,3.90
2023-05-02T23:49:45.908Z,3.50
2023-05-02T23:52:14.408Z,4.00
2023-05-02T23:54:42.893Z,3.90
2023-05-02T23:57:12.258Z,4.00
2023-05-02T23:59:40.819Z,4.40
